OENG

Nejran Airport

Saudi Arabia
TAF OENG 212300Z 2200/2306 27006KT 9999 FEW030 BECMG 2206/2208 09005G15KT TEMPO 2210/2218 5000 DU BLDU SCT030
Issued Valid From Valid To
Sep-21 @ 23:00 UTC
(4 hours ago)
Sep-22 @ 00:00 UTC
(3 hours ago)
Sep-23 @ 06:00 UTC
(-1 days ago)
to
to
to
TAF OENG 212300Z 2200/2306 27006KT 9999 FEW030 BECMG 2206/2208 09005G15KT TEMPO 2210/2218 5000 DU BLDU SCT030
Issued Sep-21 @ 23:00 UTC
(4 hours ago)
Valid From Sep-22 @ 00:00 UTC
(3 hours ago)
Valid To Sep-23 @ 06:00 UTC
(-1 days ago)
-
-
-